createdAt,value
2022-10-22T00:01:44.035Z,97841.75
2022-10-22T00:04:47.878Z,97831.25
2022-10-22T00:07:52.494Z,97805.06
2022-10-22T00:10:55.668Z,97847.16
2022-10-22T00:13:59.139Z,97833.06
2022-10-22T00:17:02.483Z,97844.97
2022-10-22T00:20:06.942Z,97838.63
2022-10-22T00:23:11.434Z,97850.50
2022-10-22T00:26:14.645Z,97848.19
2022-10-22T00:29:19.960Z,97852.34
2022-10-22T00:32:23.089Z,97862.41
2022-10-22T00:35:26.332Z,97861.31
2022-10-22T00:38:31.048Z,97868.09
2022-10-22T00:41:34.215Z,97874.88
2022-10-22T00:45:02.453Z,97865.50
2022-10-22T00:48:07.997Z,97865.25
2022-10-22T00:51:11.091Z,97861.72
2022-10-22T00:54:15.898Z,97863.94
2022-10-22T00:57:20.757Z,97879.91
2022-10-22T01:00:24.602Z,97872.47
2022-10-22T01:03:29.552Z,97865.47
2022-10-22T01:06:34.409Z,97862.97
2022-10-22T01:09:44.185Z,97862.03
2022-10-22T01:12:58.468Z,97838.25
2022-10-22T01:16:11.627Z,97858.22
2022-10-22T01:19:33.154Z,97868.09
2022-10-22T01:22:42.427Z,97864.41
2022-10-22T01:25:51.481Z,97857.75
2022-10-22T01:29:02.354Z,97845.88
2022-10-22T01:32:11.062Z,97842.16
2022-10-22T01:35:19.866Z,97819.28
2022-10-22T01:38:25.437Z,97830.34
2022-10-22T01:41:29.666Z,97826.72
2022-10-22T01:47:57.325Z,97814.28
2022-10-22T01:51:15.454Z,97815.47
2022-10-22T01:54:28.823Z,97820.22
2022-10-22T01:57:40.531Z,97806.28
2022-10-22T02:00:51.628Z,97802.81
2022-10-22T02:04:02.487Z,97809.78
2022-10-22T02:07:08.969Z,97800.34
2022-10-22T02:10:13.948Z,97812.06
2022-10-22T02:13:23.597Z,97789.13
2022-10-22T02:16:32.649Z,97808.84
2022-10-22T02:19:41.688Z,97821.81
2022-10-22T02:22:45.031Z,97817.22
2022-10-22T02:25:52.545Z,97823.00
2022-10-22T02:29:04.386Z,97814.13
2022-10-22T02:32:13.090Z,97782.34
2022-10-22T02:35:20.340Z,97833.94
2022-10-22T02:38:25.048Z,97796.63
2022-10-22T02:41:28.854Z,97841.38
2022-10-22T02:44:32.278Z,97849.16
2022-10-22T02:47:36.818Z,97837.09
2022-10-22T02:50:39.954Z,97832.69
2022-10-22T02:53:43.159Z,97831.84
2022-10-22T02:56:46.290Z,97832.22
2022-10-22T02:59:49.954Z,97826.38
2022-10-22T03:02:54.768Z,97829.06
2022-10-22T03:05:57.990Z,97826.38
2022-10-22T03:09:01.258Z,97816.47
2022-10-22T03:12:04.754Z,97837.06
2022-10-22T03:15:08.454Z,97854.06
2022-10-22T03:18:13.120Z,97845.44
2022-10-22T03:21:26.474Z,97835.16
2022-10-22T03:24:35.330Z,97838.31
2022-10-22T03:27:40.606Z,97814.47
2022-10-22T03:34:25.026Z,97847.34
2022-10-22T03:37:28.609Z,97849.72
2022-10-22T03:40:31.839Z,97859.44
2022-10-22T03:43:36.102Z,97873.09
2022-10-22T03:46:39.277Z,97878.53
2022-10-22T03:49:43.761Z,97899.72
2022-10-22T03:52:46.885Z,97894.75
2022-10-22T03:55:50.116Z,97891.19
2022-10-22T03:58:56.654Z,97888.25
2022-10-22T04:01:59.879Z,97881.47
2022-10-22T04:05:04.898Z,97909.19
2022-10-22T04:08:08.217Z,97912.47
2022-10-22T04:11:12.799Z,97925.84
2022-10-22T04:14:15.941Z,97937.00
2022-10-22T04:17:19.326Z,97939.50
2022-10-22T04:20:23.912Z,97931.66
2022-10-22T04:23:47.775Z,97932.97
2022-10-22T04:26:51.077Z,97931.38
2022-10-22T04:29:54.204Z,97936.50
2022-10-22T04:32:57.481Z,97940.03
2022-10-22T04:36:03.032Z,97936.00
2022-10-22T04:39:07.344Z,97945.72
2022-10-22T04:42:10.484Z,97945.44
2022-10-22T04:45:15.583Z,97940.69
2022-10-22T04:48:18.916Z,97806.00
2022-10-22T04:51:25.449Z,97964.50
2022-10-22T04:54:32.170Z,97958.50
2022-10-22T04:57:36.416Z,97960.63
2022-10-22T05:00:39.592Z,97953.75
2022-10-22T05:03:43.719Z,97955.78
2022-10-22T05:06:48.719Z,97950.91
2022-10-22T05:09:52.249Z,97949.06
2022-10-22T05:12:55.589Z,97951.06
2022-10-22T05:16:02.237Z,97938.19
2022-10-22T05:19:06.973Z,97958.69
2022-10-22T05:22:11.532Z,97956.59
2022-10-22T05:25:14.711Z,97944.63
2022-10-22T05:28:17.773Z,97947.59
2022-10-22T05:31:21.695Z,97947.69
2022-10-22T05:34:24.824Z,97961.41
2022-10-22T05:37:29.333Z,97962.78
2022-10-22T05:40:32.461Z,97968.94
2022-10-22T05:43:35.984Z,97974.25
2022-10-22T05:46:46.417Z,97967.72
2022-10-22T05:49:50.344Z,97978.41
2022-10-22T05:52:54.832Z,97990.63
2022-10-22T05:56:01.266Z,97985.72
2022-10-22T05:59:04.774Z,97970.97
2022-10-22T06:02:10.364Z,97994.34
2022-10-22T06:05:13.506Z,97990.28
2022-10-22T06:08:19.138Z,97992.88
2022-10-22T06:11:24.566Z,97993.69
2022-10-22T06:14:29.363Z,98018.25
2022-10-22T06:17:32.827Z,98035.31
2022-10-22T06:20:36.301Z,98023.63
2022-10-22T06:23:41.576Z,98032.41
2022-10-22T06:26:44.799Z,98045.09
2022-10-22T06:29:49.067Z,98057.56
2022-10-22T06:32:52.209Z,98055.47
2022-10-22T06:35:55.473Z,98047.75
2022-10-22T06:39:00.006Z,98055.97
2022-10-22T06:42:03.093Z,98066.16
2022-10-22T06:45:11.759Z,98074.03
2022-10-22T06:48:14.870Z,98083.69
2022-10-22T06:51:19.028Z,98087.50
2022-10-22T06:54:24.525Z,98087.34
2022-10-22T06:57:27.591Z,98094.81
2022-10-22T07:00:31.133Z,98032.34
2022-10-22T07:03:34.605Z,98088.41
2022-10-22T07:06:38.138Z,98106.88
2022-10-22T07:09:45.454Z,98107.94
2022-10-22T07:12:48.510Z,98104.44
2022-10-22T07:15:54.525Z,98117.00
2022-10-22T07:18:57.685Z,98122.75
2022-10-22T07:22:01.103Z,98116.81
2022-10-22T07:25:07.267Z,98128.56
2022-10-22T07:28:10.735Z,98126.25
2022-10-22T07:31:16.191Z,98130.34
2022-10-22T07:37:23.419Z,98141.03
2022-10-22T07:40:28.021Z,98151.13
2022-10-22T07:43:31.334Z,98123.59
2022-10-22T07:46:35.220Z,98146.94
2022-10-22T07:49:38.605Z,98152.56
2022-10-22T07:52:42.507Z,98146.69
2022-10-22T07:55:49.980Z,98155.56
2022-10-22T07:58:53.422Z,98165.06
2022-10-22T08:01:56.799Z,98166.91
2022-10-22T08:05:00.055Z,98161.56
2022-10-22T08:08:03.375Z,98181.41
2022-10-22T08:11:08.211Z,98185.13
2022-10-22T08:14:11.800Z,98184.78
2022-10-22T08:17:15.017Z,98196.44
2022-10-22T08:20:18.457Z,98192.16
2022-10-22T08:23:25.945Z,98189.75
2022-10-22T08:26:32.146Z,98181.69
2022-10-22T08:29:35.287Z,98187.38
2022-10-22T08:32:38.641Z,98189.56
2022-10-22T08:35:41.757Z,98187.38
2022-10-22T08:38:44.878Z,98187.31
2022-10-22T08:42:00.334Z,98185.91
2022-10-22T08:45:13.754Z,98175.72
2022-10-22T08:48:31.066Z,98181.41
2022-10-22T08:51:40.325Z,98185.16
2022-10-22T08:54:51.811Z,98174.25
2022-10-22T08:58:05.424Z,98197.31
2022-10-22T09:01:14.458Z,98201.53
2022-10-22T09:04:25.352Z,98193.06
2022-10-22T09:07:33.774Z,98166.88
2022-10-22T09:10:39.889Z,98172.06
2022-10-22T09:13:46.720Z,98173.97
2022-10-22T09:17:06.238Z,98155.97
2022-10-22T09:20:16.934Z,98160.72
2022-10-22T09:23:53.713Z,98070.41
2022-10-22T09:27:18.631Z,98117.41
2022-10-22T09:34:27.479Z,98146.47
2022-10-22T09:37:31.233Z,98157.13
2022-10-22T09:40:44.054Z,98163.13
2022-10-22T09:43:47.899Z,98162.53
2022-10-22T09:46:51.405Z,98166.09
2022-10-22T09:50:08.062Z,98152.25
2022-10-22T09:53:18.745Z,98184.91
2022-10-22T09:56:26.715Z,98175.53
2022-10-22T09:59:32.854Z,98163.22
2022-10-22T10:02:39.070Z,98183.13
2022-10-22T10:05:44.295Z,98182.50
2022-10-22T10:08:48.330Z,98186.06
2022-10-22T10:12:00.860Z,98166.94
2022-10-22T10:15:14.705Z,98177.22
2022-10-22T10:18:28.567Z,98169.50
2022-10-22T10:21:41.285Z,98170.28
2022-10-22T10:25:03.835Z,98172.22
2022-10-22T10:28:21.541Z,98167.00
2022-10-22T10:31:37.387Z,98173.66
2022-10-22T10:34:47.357Z,98175.00
2022-10-22T10:38:07.166Z,98172.16
2022-10-22T10:41:27.318Z,98164.31
2022-10-22T10:44:46.759Z,98156.78
2022-10-22T10:48:25.137Z,98169.03
2022-10-22T10:51:48.076Z,98171.84
2022-10-22T10:55:04.111Z,98165.56
2022-10-22T10:58:19.709Z,98161.69
2022-10-22T11:01:30.955Z,98184.19
2022-10-22T11:05:00.032Z,98185.53
2022-10-22T11:08:09.628Z,98170.56
2022-10-22T11:11:19.880Z,98185.38
2022-10-22T11:14:30.326Z,98166.88
2022-10-22T11:17:40.599Z,98163.44
2022-10-22T11:20:54.823Z,98170.22
2022-10-22T11:24:06.376Z,98173.19
2022-10-22T11:27:19.080Z,98124.53
2022-10-22T11:30:24.488Z,98168.28
2022-10-22T11:33:34.845Z,98167.38
2022-10-22T11:36:39.900Z,98149.34
2022-10-22T11:39:46.144Z,98156.25
2022-10-22T11:42:54.177Z,98158.06
2022-10-22T11:46:25.419Z,98152.78
2022-10-22T11:49:42.220Z,98145.97
2022-10-22T11:52:55.022Z,98151.31
2022-10-22T11:56:00.072Z,98128.66
2022-10-22T11:59:09.031Z,98136.19
2022-10-22T12:02:30.613Z,98150.88
2022-10-22T12:05:37.823Z,98150.22
2022-10-22T12:08:44.897Z,98150.56
2022-10-22T12:11:51.630Z,98148.78
2022-10-22T12:14:59.369Z,98149.56
2022-10-22T12:18:06.535Z,98146.59
2022-10-22T12:21:14.229Z,98127.16
2022-10-22T12:24:21.215Z,98146.94
2022-10-22T12:27:26.722Z,98153.56
2022-10-22T12:30:34.721Z,98152.66
2022-10-22T12:33:39.884Z,98145.34
2022-10-22T12:36:43.387Z,98140.59
2022-10-22T12:39:47.391Z,98139.97
2022-10-22T12:42:52.903Z,98153.44
2022-10-22T12:45:59.787Z,98141.66
2022-10-22T12:49:06.906Z,98145.78
2022-10-22T12:52:15.931Z,98144.84
2022-10-22T12:55:25.530Z,98085.97
2022-10-22T12:58:34.801Z,98140.34
2022-10-22T13:01:41.529Z,98121.13
2022-10-22T13:05:15.025Z,98124.88
2022-10-22T13:08:22.785Z,98122.88
2022-10-22T13:11:32.762Z,98133.34
2022-10-22T13:14:38.500Z,98139.81
2022-10-22T13:17:43.061Z,98138.56
2022-10-22T13:20:56.731Z,98097.09
2022-10-22T13:24:01.949Z,98121.59
2022-10-22T13:27:05.483Z,98130.53
2022-10-22T13:30:23.617Z,98130.19
2022-10-22T13:33:30.300Z,98116.78
2022-10-22T13:36:34.835Z,98118.59
2022-10-22T13:39:37.977Z,98123.81
2022-10-22T13:42:41.314Z,98117.84
2022-10-22T13:45:46.321Z,98104.72
2022-10-22T13:48:52.570Z,98095.03
2022-10-22T13:51:59.058Z,98128.81
2022-10-22T13:55:02.211Z,98120.28
2022-10-22T13:58:11.783Z,98122.00
2022-10-22T14:01:21.833Z,98134.81
2022-10-22T14:04:25.463Z,98132.69
2022-10-22T14:07:30.192Z,98130.81
2022-10-22T14:10:33.397Z,98097.31
2022-10-22T14:13:36.524Z,98136.84
2022-10-22T14:16:39.755Z,98122.31
2022-10-22T14:19:44.368Z,98125.41
2022-10-22T14:22:50.673Z,98127.97
2022-10-22T14:25:54.391Z,98116.88
2022-10-22T14:29:09.471Z,98120.69
2022-10-22T14:32:16.186Z,98109.19
2022-10-22T14:35:22.267Z,98131.31
2022-10-22T14:38:26.896Z,98125.94
2022-10-22T14:41:30.665Z,98125.88
2022-10-22T14:44:33.772Z,98120.13
2022-10-22T14:47:36.838Z,98131.47
2022-10-22T14:50:40.047Z,98137.38
2022-10-22T14:53:44.692Z,98134.69
2022-10-22T14:56:47.823Z,98140.63
2022-10-22T14:59:54.790Z,98148.16
2022-10-22T15:03:03.265Z,98132.91
2022-10-22T15:06:08.687Z,98153.63
2022-10-22T15:09:13.291Z,98152.16
2022-10-22T15:12:16.479Z,98121.84
2022-10-22T15:15:22.660Z,98147.56
2022-10-22T15:18:27.098Z,98152.19
2022-10-22T15:21:30.334Z,98160.75
2022-10-22T15:24:35.024Z,98152.72
2022-10-22T15:27:38.414Z,98145.25
2022-10-22T15:34:26.293Z,98172.97
2022-10-22T15:37:30.816Z,98168.66
2022-10-22T15:40:34.084Z,98153.16
2022-10-22T15:43:38.087Z,98165.28
2022-10-22T15:46:41.832Z,98186.00
2022-10-22T15:49:46.521Z,98188.97
2022-10-22T15:52:49.810Z,98209.44
2022-10-22T15:55:55.237Z,98208.66
2022-10-22T15:59:00.286Z,98229.66
2022-10-22T16:02:03.500Z,98205.34
2022-10-22T16:05:09.401Z,98224.41
2022-10-22T16:08:12.635Z,98238.13
2022-10-22T16:11:16.067Z,98243.81
2022-10-22T16:14:21.374Z,98259.72
2022-10-22T16:17:33.964Z,98234.09
2022-10-22T16:20:41.611Z,98264.03
2022-10-22T16:23:45.154Z,98279.66
2022-10-22T16:26:49.241Z,98281.47
2022-10-22T16:29:52.484Z,98286.38
2022-10-22T16:32:58.039Z,98293.50
2022-10-22T16:36:03.252Z,98264.44
2022-10-22T16:39:07.811Z,98297.09
2022-10-22T16:42:11.309Z,98295.00
2022-10-22T16:48:18.644Z,98306.03
2022-10-22T16:51:25.416Z,98282.13
2022-10-22T16:54:28.856Z,98324.72
2022-10-22T16:57:33.948Z,98281.31
2022-10-22T17:00:40.030Z,98325.94
2022-10-22T17:03:43.394Z,98330.59
2022-10-22T17:06:47.990Z,98327.06
2022-10-22T17:09:51.471Z,98327.22
2022-10-22T17:12:54.696Z,98331.66
2022-10-22T17:16:02.953Z,98279.47
2022-10-22T17:19:06.392Z,98329.44
2022-10-22T17:22:14.799Z,98329.59
2022-10-22T17:25:24.606Z,98309.00
2022-10-22T17:28:28.791Z,98338.81
2022-10-22T17:31:35.412Z,98331.56
2022-10-22T17:34:38.640Z,98337.03
2022-10-22T17:37:43.708Z,98338.97
2022-10-22T17:40:47.348Z,98342.09
2022-10-22T17:43:50.851Z,98344.47
2022-10-22T17:46:54.079Z,98344.44
2022-10-22T17:49:57.977Z,98349.16
2022-10-22T17:53:02.857Z,98348.81
2022-10-22T17:56:10.154Z,98351.59
2022-10-22T17:59:17.065Z,98337.59
2022-10-22T18:02:20.258Z,98350.44
2022-10-22T18:05:25.568Z,98356.25
2022-10-22T18:08:30.347Z,98357.66
2022-10-22T18:11:36.152Z,98287.75
2022-10-22T18:14:39.636Z,98354.38
2022-10-22T18:17:43.239Z,98223.44
2022-10-22T18:20:55.485Z,98148.13
2022-10-22T18:24:00.211Z,98221.94
2022-10-22T18:27:14.292Z,98233.31
2022-10-22T18:30:17.862Z,98234.00
2022-10-22T18:33:28.642Z,98214.66
2022-10-22T18:36:35.239Z,98230.41
2022-10-22T18:39:45.032Z,98333.56
2022-10-22T18:42:52.669Z,98380.72
2022-10-22T18:45:56.141Z,98359.44
2022-10-22T18:49:00.115Z,98255.88
2022-10-22T18:52:13.307Z,98330.97
2022-10-22T18:55:24.616Z,98157.38
2022-10-22T18:58:29.061Z,98168.38
2022-10-22T19:01:35.476Z,98136.41
2022-10-22T19:04:46.219Z,98154.06
2022-10-22T19:07:50.658Z,98297.72
2022-10-22T19:10:55.426Z,98173.25
2022-10-22T19:14:04.965Z,98261.66
2022-10-22T19:17:08.425Z,98099.75
2022-10-22T19:20:12.206Z,98279.13
2022-10-22T19:23:19.896Z,98368.53
2022-10-22T19:26:32.402Z,98170.19
2022-10-22T19:29:43.682Z,98212.78
2022-10-22T19:32:48.765Z,98371.25
2022-10-22T19:35:52.196Z,98388.72
2022-10-22T19:39:03.349Z,98160.34
2022-10-22T19:42:08.102Z,98267.25
2022-10-22T19:45:12.083Z,98293.81
2022-10-22T19:48:26.202Z,98292.59
2022-10-22T19:51:30.995Z,98100.84
2022-10-22T19:54:40.654Z,98337.56
2022-10-22T19:57:45.558Z,98325.91
2022-10-22T20:00:50.272Z,98373.78
2022-10-22T20:03:58.101Z,98367.91
2022-10-22T20:07:04.393Z,98329.72
2022-10-22T20:10:09.579Z,98327.03
2022-10-22T20:13:23.555Z,98245.00
2022-10-22T20:16:30.040Z,98209.88
2022-10-22T20:19:40.851Z,98141.13
2022-10-22T20:22:44.691Z,98374.28
2022-10-22T20:25:48.999Z,98352.34
2022-10-22T20:28:59.915Z,98274.38
2022-10-22T20:32:05.501Z,98264.28
2022-10-22T20:35:16.512Z,98083.41
2022-10-22T20:38:19.949Z,98202.56
2022-10-22T20:41:24.136Z,98110.06
2022-10-22T20:44:34.950Z,98241.78
2022-10-22T20:47:50.997Z,98368.28
2022-10-22T20:50:55.337Z,98247.97
2022-10-22T20:53:59.087Z,98389.88
2022-10-22T20:57:02.520Z,98376.69
2022-10-22T21:00:17.737Z,98382.41
2022-10-22T21:03:21.357Z,98345.94
2022-10-22T21:06:35.201Z,98262.41
2022-10-22T21:09:38.630Z,98273.44
2022-10-22T21:12:42.438Z,98390.16
2022-10-22T21:15:57.304Z,98386.84
2022-10-22T21:19:01.182Z,98392.78
2022-10-22T21:22:12.869Z,98342.88
2022-10-22T21:25:16.542Z,98346.69
2022-10-22T21:28:20.267Z,98251.72
2022-10-22T21:34:24.560Z,98395.31
2022-10-22T21:37:30.042Z,98396.28
2022-10-22T21:40:33.614Z,98397.28
2022-10-22T21:43:38.883Z,98390.97
2022-10-22T21:46:42.087Z,98386.03
2022-10-22T21:49:46.650Z,98394.78
2022-10-22T21:52:49.807Z,98398.97
2022-10-22T21:55:52.970Z,98397.06
2022-10-22T21:58:57.090Z,98382.38
2022-10-22T22:02:04.832Z,98391.47
2022-10-22T22:05:10.942Z,98394.97
2022-10-22T22:08:15.098Z,98393.16
2022-10-22T22:11:20.943Z,98397.16
2022-10-22T22:14:24.125Z,98396.59
2022-10-22T22:17:27.217Z,98397.38
2022-10-22T22:20:31.935Z,98397.22
2022-10-22T22:23:37.715Z,98395.19
2022-10-22T22:26:41.464Z,98383.91
2022-10-22T22:29:44.940Z,98355.22
2022-10-22T22:32:48.199Z,98381.06
2022-10-22T22:35:52.656Z,98383.00
2022-10-22T22:38:56.866Z,98377.78
2022-10-22T22:42:00.234Z,98377.91
2022-10-22T22:45:03.391Z,98385.13
2022-10-22T22:48:06.689Z,98385.25
2022-10-22T22:51:11.552Z,98383.34
2022-10-22T22:54:14.898Z,98378.94
2022-10-22T22:57:18.278Z,98373.22
2022-10-22T23:00:21.895Z,98331.38
2022-10-22T23:03:25.044Z,98353.94
2022-10-22T23:06:31.941Z,98349.59
2022-10-22T23:09:35.484Z,98352.19
2022-10-22T23:12:38.852Z,98341.97
2022-10-22T23:15:42.149Z,98335.97
2022-10-22T23:18:45.889Z,98343.84
2022-10-22T23:21:52.846Z,98342.72
2022-10-22T23:24:55.952Z,98329.47
2022-10-22T23:27:59.231Z,98337.31
2022-10-22T23:31:05.068Z,98344.06
2022-10-22T23:34:09.088Z,98343.47
2022-10-22T23:37:13.656Z,98339.72
2022-10-22T23:40:16.944Z,98342.50
2022-10-22T23:43:20.238Z,98336.69
2022-10-22T23:46:43.376Z,98346.38
2022-10-22T23:49:46.725Z,98348.47
2022-10-22T23:52:51.846Z,98358.28
2022-10-22T23:55:54.973Z,98364.25
2022-10-22T23:58:58.656Z,98370.34
